sensor_id;sensor_type;location;lat;lon;timestamp;P1;durP1;ratioP1;P2;durP2;ratioP2
78931;SDS011;68331;53.362;55.932;2023-05-16T00:01:32;36.83;;;24.27;;
78931;SDS011;68331;53.362;55.932;2023-05-16T00:03:59;36.38;;;22.50;;
78931;SDS011;68331;53.362;55.932;2023-05-16T00:06:27;33.42;;;21.88;;
78931;SDS011;68331;53.362;55.932;2023-05-16T00:08:54;33.03;;;20.50;;
78931;SDS011;68331;53.362;55.932;2023-05-16T00:11:20;35.33;;;21.20;;
78931;SDS011;68331;53.362;55.932;2023-05-16T00:13:46;33.20;;;21.13;;
78931;SDS011;68331;53.362;55.932;2023-05-16T00:16:13;28.65;;;18.20;;
78931;SDS011;68331;53.362;55.932;2023-05-16T00:18:39;29.15;;;20.17;;
78931;SDS011;68331;53.362;55.932;2023-05-16T00:21:06;29.80;;;21.02;;
78931;SDS011;68331;53.362;55.932;2023-05-16T00:23:32;28.95;;;19.02;;
78931;SDS011;68331;53.362;55.932;2023-05-16T00:25:58;31.27;;;18.20;;
78931;SDS011;68331;53.362;55.932;2023-05-16T00:28:24;31.67;;;19.70;;
78931;SDS011;68331;53.362;55.932;2023-05-16T00:30:50;29.92;;;20.17;;
78931;SDS011;68331;53.362;55.932;2023-05-16T00:33:17;29.80;;;18.92;;
78931;SDS011;68331;53.362;55.932;2023-05-16T00:35:44;28.00;;;19.63;;
78931;SDS011;68331;53.362;55.932;2023-05-16T00:38:10;30.58;;;19.63;;
78931;SDS011;68331;53.362;55.932;2023-05-16T00:40:37;30.77;;;19.13;;
78931;SDS011;68331;53.362;55.932;2023-05-16T00:43:03;29.40;;;19.02;;
78931;SDS011;68331;53.362;55.932;2023-05-16T00:45:29;29.75;;;19.20;;
78931;SDS011;68331;53.362;55.932;2023-05-16T00:47:55;31.15;;;19.52;;
78931;SDS011;68331;53.362;55.932;2023-05-16T00:50:21;30.50;;;19.55;;
78931;SDS011;68331;53.362;55.932;2023-05-16T00:52:48;35.85;;;20.20;;
78931;SDS011;68331;53.362;55.932;2023-05-16T00:55:14;32.10;;;18.17;;
78931;SDS011;68331;53.362;55.932;2023-05-16T00:57:40;32.08;;;21.20;;
78931;SDS011;68331;53.362;55.932;2023-05-16T01:00:07;31.48;;;21.15;;
78931;SDS011;68331;53.362;55.932;2023-05-16T01:02:34;29.65;;;19.45;;
78931;SDS011;68331;53.362;55.932;2023-05-16T01:05:02;33.38;;;18.20;;
78931;SDS011;68331;53.362;55.932;2023-05-16T01:07:35;29.02;;;20.30;;
78931;SDS011;68331;53.362;55.932;2023-05-16T01:10:01;29.30;;;18.83;;
78931;SDS011;68331;53.362;55.932;2023-05-16T01:15:39;28.65;;;19.35;;
78931;SDS011;68331;53.362;55.932;2023-05-16T01:20:53;34.65;;;19.85;;
78931;SDS011;68331;53.362;55.932;2023-05-16T01:23:32;28.73;;;19.00;;
78931;SDS011;68331;53.362;55.932;2023-05-16T01:28:44;28.30;;;19.70;;
78931;SDS011;68331;53.362;55.932;2023-05-16T01:31:11;33.78;;;20.63;;
78931;SDS011;68331;53.362;55.932;2023-05-16T01:33:37;32.50;;;19.00;;
78931;SDS011;68331;53.362;55.932;2023-05-16T01:36:11;32.47;;;19.63;;
78931;SDS011;68331;53.362;55.932;2023-05-16T01:44:34;30.73;;;19.08;;
78931;SDS011;68331;53.362;55.932;2023-05-16T01:49:40;29.13;;;19.40;;
78931;SDS011;68331;53.362;55.932;2023-05-16T01:52:16;28.17;;;19.77;;
78931;SDS011;68331;53.362;55.932;2023-05-16T01:54:47;30.73;;;19.20;;
78931;SDS011;68331;53.362;55.932;2023-05-16T01:57:20;34.67;;;19.38;;
78931;SDS011;68331;53.362;55.932;2023-05-16T01:59:50;30.70;;;18.38;;
78931;SDS011;68331;53.362;55.932;2023-05-16T02:02:17;31.00;;;19.00;;
78931;SDS011;68331;53.362;55.932;2023-05-16T02:04:43;34.72;;;19.63;;
78931;SDS011;68331;53.362;55.932;2023-05-16T02:07:11;38.08;;;20.00;;
78931;SDS011;68331;53.362;55.932;2023-05-16T02:09:39;32.80;;;19.85;;
78931;SDS011;68331;53.362;55.932;2023-05-16T02:12:06;32.22;;;19.95;;
78931;SDS011;68331;53.362;55.932;2023-05-16T02:14:32;31.90;;;19.80;;
78931;SDS011;68331;53.362;55.932;2023-05-16T02:16:59;32.88;;;19.80;;
78931;SDS011;68331;53.362;55.932;2023-05-16T02:19:25;34.00;;;19.55;;
78931;SDS011;68331;53.362;55.932;2023-05-16T02:21:51;39.75;;;21.13;;
78931;SDS011;68331;53.362;55.932;2023-05-16T02:24:17;33.58;;;20.85;;
78931;SDS011;68331;53.362;55.932;2023-05-16T02:26:43;28.88;;;19.00;;
78931;SDS011;68331;53.362;55.932;2023-05-16T02:29:09;30.17;;;20.80;;
78931;SDS011;68331;53.362;55.932;2023-05-16T02:31:36;36.28;;;20.92;;
78931;SDS011;68331;53.362;55.932;2023-05-16T02:34:02;36.78;;;21.52;;
78931;SDS011;68331;53.362;55.932;2023-05-16T02:36:28;29.63;;;20.75;;
78931;SDS011;68331;53.362;55.932;2023-05-16T02:38:54;32.20;;;20.55;;
78931;SDS011;68331;53.362;55.932;2023-05-16T02:41:21;30.50;;;21.38;;
78931;SDS011;68331;53.362;55.932;2023-05-16T02:43:48;32.72;;;20.65;;
78931;SDS011;68331;53.362;55.932;2023-05-16T02:48:53;39.03;;;21.90;;
78931;SDS011;68331;53.362;55.932;2023-05-16T02:51:20;32.60;;;22.42;;
78931;SDS011;68331;53.362;55.932;2023-05-16T02:53:47;34.50;;;22.15;;
78931;SDS011;68331;53.362;55.932;2023-05-16T02:56:14;39.70;;;22.30;;
78931;SDS011;68331;53.362;55.932;2023-05-16T02:58:40;36.17;;;21.98;;
78931;SDS011;68331;53.362;55.932;2023-05-16T03:01:06;35.83;;;22.02;;
78931;SDS011;68331;53.362;55.932;2023-05-16T03:03:33;36.40;;;21.02;;
78931;SDS011;68331;53.362;55.932;2023-05-16T03:06:00;34.75;;;22.65;;
78931;SDS011;68331;53.362;55.932;2023-05-16T03:08:27;37.03;;;23.17;;
78931;SDS011;68331;53.362;55.932;2023-05-16T03:10:55;35.65;;;22.27;;
78931;SDS011;68331;53.362;55.932;2023-05-16T03:13:21;36.47;;;21.90;;
78931;SDS011;68331;53.362;55.932;2023-05-16T03:15:47;36.25;;;22.50;;
78931;SDS011;68331;53.362;55.932;2023-05-16T03:18:13;39.60;;;23.13;;
78931;SDS011;68331;53.362;55.932;2023-05-16T03:20:41;37.03;;;23.13;;
78931;SDS011;68331;53.362;55.932;2023-05-16T03:23:07;36.88;;;22.63;;
78931;SDS011;68331;53.362;55.932;2023-05-16T03:25:34;41.22;;;23.33;;
78931;SDS011;68331;53.362;55.932;2023-05-16T03:28:02;35.50;;;23.10;;
78931;SDS011;68331;53.362;55.932;2023-05-16T03:30:29;39.15;;;24.90;;
78931;SDS011;68331;53.362;55.932;2023-05-16T03:32:55;45.83;;;26.20;;
78931;SDS011;68331;53.362;55.932;2023-05-16T03:35:21;41.17;;;25.33;;
78931;SDS011;68331;53.362;55.932;2023-05-16T03:37:49;43.90;;;26.50;;
78931;SDS011;68331;53.362;55.932;2023-05-16T03:40:14;56.35;;;26.15;;
78931;SDS011;68331;53.362;55.932;2023-05-16T03:42:41;45.65;;;26.70;;
78931;SDS011;68331;53.362;55.932;2023-05-16T03:45:06;37.63;;;23.92;;
78931;SDS011;68331;53.362;55.932;2023-05-16T03:47:33;40.47;;;24.42;;
78931;SDS011;68331;53.362;55.932;2023-05-16T03:49:59;46.95;;;25.27;;
78931;SDS011;68331;53.362;55.932;2023-05-16T03:52:25;39.80;;;23.35;;
78931;SDS011;68331;53.362;55.932;2023-05-16T03:54:51;34.58;;;22.30;;
78931;SDS011;68331;53.362;55.932;2023-05-16T03:57:16;39.75;;;24.30;;
78931;SDS011;68331;53.362;55.932;2023-05-16T03:59:42;36.03;;;20.95;;
78931;SDS011;68331;53.362;55.932;2023-05-16T04:02:08;34.15;;;22.40;;
78931;SDS011;68331;53.362;55.932;2023-05-16T04:04:34;33.25;;;22.42;;
78931;SDS011;68331;53.362;55.932;2023-05-16T04:07:01;29.67;;;21.38;;
78931;SDS011;68331;53.362;55.932;2023-05-16T04:09:27;31.02;;;22.52;;
78931;SDS011;68331;53.362;55.932;2023-05-16T04:11:53;36.03;;;22.02;;
78931;SDS011;68331;53.362;55.932;2023-05-16T04:14:23;29.95;;;21.70;;
78931;SDS011;68331;53.362;55.932;2023-05-16T04:16:49;29.80;;;20.88;;
78931;SDS011;68331;53.362;55.932;2023-05-16T04:19:15;30.38;;;20.80;;
78931;SDS011;68331;53.362;55.932;2023-05-16T04:21:41;31.75;;;21.02;;
78931;SDS011;68331;53.362;55.932;2023-05-16T04:24:07;27.45;;;20.17;;
78931;SDS011;68331;53.362;55.932;2023-05-16T04:26:35;28.40;;;19.98;;
78931;SDS011;68331;53.362;55.932;2023-05-16T04:29:01;30.88;;;20.90;;
78931;SDS011;68331;53.362;55.932;2023-05-16T04:31:28;29.27;;;20.85;;
78931;SDS011;68331;53.362;55.932;2023-05-16T04:33:53;33.22;;;20.77;;
78931;SDS011;68331;53.362;55.932;2023-05-16T04:36:20;31.98;;;21.77;;
78931;SDS011;68331;53.362;55.932;2023-05-16T04:38:46;30.73;;;21.13;;
78931;SDS011;68331;53.362;55.932;2023-05-16T04:41:12;33.90;;;21.38;;
78931;SDS011;68331;53.362;55.932;2023-05-16T04:43:38;32.08;;;20.50;;
78931;SDS011;68331;53.362;55.932;2023-05-16T04:46:05;30.35;;;19.88;;
78931;SDS011;68331;53.362;55.932;2023-05-16T04:48:34;31.30;;;20.13;;
78931;SDS011;68331;53.362;55.932;2023-05-16T04:51:00;31.52;;;19.02;;
78931;SDS011;68331;53.362;55.932;2023-05-16T04:53:26;34.45;;;20.20;;
78931;SDS011;68331;53.362;55.932;2023-05-16T04:55:53;32.20;;;21.85;;
78931;SDS011;68331;53.362;55.932;2023-05-16T04:58:19;31.45;;;20.52;;
78931;SDS011;68331;53.362;55.932;2023-05-16T05:00:45;35.95;;;21.88;;
78931;SDS011;68331;53.362;55.932;2023-05-16T05:03:11;30.15;;;19.73;;
78931;SDS011;68331;53.362;55.932;2023-05-16T05:05:37;38.10;;;22.48;;
78931;SDS011;68331;53.362;55.932;2023-05-16T05:08:03;31.00;;;21.83;;
78931;SDS011;68331;53.362;55.932;2023-05-16T05:10:29;33.55;;;23.63;;
78931;SDS011;68331;53.362;55.932;2023-05-16T05:12:56;36.53;;;21.25;;
78931;SDS011;68331;53.362;55.932;2023-05-16T05:15:22;31.42;;;22.60;;
78931;SDS011;68331;53.362;55.932;2023-05-16T05:17:48;38.92;;;23.67;;
78931;SDS011;68331;53.362;55.932;2023-05-16T05:20:14;30.80;;;22.05;;
78931;SDS011;68331;53.362;55.932;2023-05-16T05:22:40;32.45;;;20.77;;
78931;SDS011;68331;53.362;55.932;2023-05-16T05:25:06;29.08;;;21.67;;
78931;SDS011;68331;53.362;55.932;2023-05-16T05:27:32;34.22;;;21.65;;
78931;SDS011;68331;53.362;55.932;2023-05-16T05:29:58;32.08;;;21.60;;
78931;SDS011;68331;53.362;55.932;2023-05-16T05:32:24;29.65;;;21.92;;
78931;SDS011;68331;53.362;55.932;2023-05-16T05:34:50;34.03;;;21.75;;
78931;SDS011;68331;53.362;55.932;2023-05-16T05:37:17;28.55;;;20.42;;
78931;SDS011;68331;53.362;55.932;2023-05-16T05:39:43;30.88;;;21.20;;
78931;SDS011;68331;53.362;55.932;2023-05-16T05:42:09;28.67;;;20.75;;
78931;SDS011;68331;53.362;55.932;2023-05-16T05:44:36;29.20;;;19.95;;
78931;SDS011;68331;53.362;55.932;2023-05-16T05:47:03;27.95;;;21.00;;
78931;SDS011;68331;53.362;55.932;2023-05-16T05:49:30;29.20;;;21.48;;
78931;SDS011;68331;53.362;55.932;2023-05-16T05:51:57;28.75;;;20.40;;
78931;SDS011;68331;53.362;55.932;2023-05-16T05:54:23;26.92;;;22.33;;
78931;SDS011;68331;53.362;55.932;2023-05-16T05:56:50;28.23;;;20.80;;
78931;SDS011;68331;53.362;55.932;2023-05-16T05:59:16;28.83;;;20.52;;
78931;SDS011;68331;53.362;55.932;2023-05-16T06:01:42;26.92;;;20.48;;
78931;SDS011;68331;53.362;55.932;2023-05-16T06:04:11;28.08;;;20.95;;
78931;SDS011;68331;53.362;55.932;2023-05-16T06:06:37;25.60;;;21.02;;
78931;SDS011;68331;53.362;55.932;2023-05-16T06:09:04;23.65;;;19.08;;
78931;SDS011;68331;53.362;55.932;2023-05-16T06:11:30;22.35;;;19.30;;
78931;SDS011;68331;53.362;55.932;2023-05-16T06:13:56;23.00;;;19.00;;
78931;SDS011;68331;53.362;55.932;2023-05-16T06:16:25;21.65;;;19.33;;
78931;SDS011;68331;53.362;55.932;2023-05-16T06:18:51;25.75;;;20.65;;
78931;SDS011;68331;53.362;55.932;2023-05-16T06:21:17;28.95;;;21.05;;
78931;SDS011;68331;53.362;55.932;2023-05-16T06:23:43;22.38;;;20.08;;
78931;SDS011;68331;53.362;55.932;2023-05-16T06:26:09;24.05;;;19.63;;
78931;SDS011;68331;53.362;55.932;2023-05-16T06:28:35;24.17;;;20.52;;
78931;SDS011;68331;53.362;55.932;2023-05-16T06:31:01;23.30;;;20.55;;
78931;SDS011;68331;53.362;55.932;2023-05-16T06:33:27;22.58;;;20.27;;
78931;SDS011;68331;53.362;55.932;2023-05-16T06:35:53;29.88;;;20.42;;
78931;SDS011;68331;53.362;55.932;2023-05-16T06:40:45;22.30;;;20.00;;
78931;SDS011;68331;53.362;55.932;2023-05-16T06:43:11;23.00;;;20.38;;
78931;SDS011;68331;53.362;55.932;2023-05-16T06:45:37;22.90;;;19.80;;
78931;SDS011;68331;53.362;55.932;2023-05-16T06:48:03;21.92;;;19.75;;
78931;SDS011;68331;53.362;55.932;2023-05-16T06:50:30;22.00;;;19.70;;
78931;SDS011;68331;53.362;55.932;2023-05-16T06:52:56;21.60;;;19.40;;
78931;SDS011;68331;53.362;55.932;2023-05-16T06:55:22;21.58;;;19.58;;
78931;SDS011;68331;53.362;55.932;2023-05-16T06:57:48;21.70;;;19.42;;
78931;SDS011;68331;53.362;55.932;2023-05-16T07:00:14;21.15;;;18.60;;
78931;SDS011;68331;53.362;55.932;2023-05-16T07:02:40;24.13;;;18.73;;
78931;SDS011;68331;53.362;55.932;2023-05-16T07:05:06;23.27;;;18.77;;
78931;SDS011;68331;53.362;55.932;2023-05-16T07:07:32;20.45;;;17.35;;
78931;SDS011;68331;53.362;55.932;2023-05-16T07:09:58;20.65;;;17.60;;
78931;SDS011;68331;53.362;55.932;2023-05-16T07:12:25;20.23;;;17.75;;
78931;SDS011;68331;53.362;55.932;2023-05-16T07:14:51;22.42;;;16.42;;
78931;SDS011;68331;53.362;55.932;2023-05-16T07:17:16;19.38;;;16.10;;
78931;SDS011;68331;53.362;55.932;2023-05-16T07:19:42;20.55;;;17.10;;
78931;SDS011;68331;53.362;55.932;2023-05-16T07:22:08;21.10;;;17.23;;
78931;SDS011;68331;53.362;55.932;2023-05-16T07:27:01;23.70;;;18.63;;
78931;SDS011;68331;53.362;55.932;2023-05-16T07:29:27;22.67;;;15.35;;
78931;SDS011;68331;53.362;55.932;2023-05-16T07:31:54;24.45;;;15.55;;
78931;SDS011;68331;53.362;55.932;2023-05-16T07:34:20;19.00;;;15.13;;
78931;SDS011;68331;53.362;55.932;2023-05-16T07:36:46;21.15;;;16.27;;
78931;SDS011;68331;53.362;55.932;2023-05-16T07:39:12;20.63;;;15.20;;
78931;SDS011;68331;53.362;55.932;2023-05-16T07:41:39;22.88;;;17.65;;
78931;SDS011;68331;53.362;55.932;2023-05-16T07:44:05;20.52;;;15.73;;
78931;SDS011;68331;53.362;55.932;2023-05-16T07:46:31;20.67;;;15.50;;
78931;SDS011;68331;53.362;55.932;2023-05-16T07:48:56;21.55;;;15.45;;
78931;SDS011;68331;53.362;55.932;2023-05-16T07:51:22;27.40;;;15.93;;
78931;SDS011;68331;53.362;55.932;2023-05-16T07:53:48;23.33;;;15.82;;
78931;SDS011;68331;53.362;55.932;2023-05-16T07:56:14;19.10;;;15.65;;
78931;SDS011;68331;53.362;55.932;2023-05-16T07:58:40;19.45;;;15.77;;
78931;SDS011;68331;53.362;55.932;2023-05-16T08:01:06;20.50;;;15.73;;
78931;SDS011;68331;53.362;55.932;2023-05-16T08:03:32;20.45;;;16.13;;
78931;SDS011;68331;53.362;55.932;2023-05-16T08:05:59;20.58;;;17.17;;
78931;SDS011;68331;53.362;55.932;2023-05-16T08:08:25;21.25;;;17.42;;
78931;SDS011;68331;53.362;55.932;2023-05-16T08:10:51;18.05;;;15.45;;
78931;SDS011;68331;53.362;55.932;2023-05-16T08:13:17;18.48;;;16.42;;
78931;SDS011;68331;53.362;55.932;2023-05-16T08:15:43;22.05;;;16.20;;
78931;SDS011;68331;53.362;55.932;2023-05-16T08:18:13;19.88;;;17.05;;
78931;SDS011;68331;53.362;55.932;2023-05-16T08:20:39;19.85;;;15.35;;
78931;SDS011;68331;53.362;55.932;2023-05-16T08:25:33;21.85;;;15.35;;
78931;SDS011;68331;53.362;55.932;2023-05-16T08:27:59;20.55;;;16.50;;
78931;SDS011;68331;53.362;55.932;2023-05-16T08:30:28;24.00;;;17.55;;
78931;SDS011;68331;53.362;55.932;2023-05-16T08:32:54;21.25;;;16.75;;
78931;SDS011;68331;53.362;55.932;2023-05-16T08:35:20;23.08;;;15.48;;
78931;SDS011;68331;53.362;55.932;2023-05-16T08:37:46;22.80;;;15.75;;
78931;SDS011;68331;53.362;55.932;2023-05-16T08:40:12;18.52;;;15.98;;
78931;SDS011;68331;53.362;55.932;2023-05-16T08:42:38;19.63;;;16.92;;
78931;SDS011;68331;53.362;55.932;2023-05-16T08:45:07;18.65;;;15.30;;
78931;SDS011;68331;53.362;55.932;2023-05-16T08:47:34;20.35;;;15.98;;
78931;SDS011;68331;53.362;55.932;2023-05-16T08:50:02;20.15;;;15.95;;
78931;SDS011;68331;53.362;55.932;2023-05-16T08:52:30;23.42;;;17.05;;
78931;SDS011;68331;53.362;55.932;2023-05-16T08:55:01;22.35;;;16.55;;
78931;SDS011;68331;53.362;55.932;2023-05-16T08:57:30;22.70;;;16.75;;
78931;SDS011;68331;53.362;55.932;2023-05-16T08:59:58;20.55;;;14.82;;
78931;SDS011;68331;53.362;55.932;2023-05-16T09:02:24;19.17;;;16.00;;
78931;SDS011;68331;53.362;55.932;2023-05-16T09:04:52;18.58;;;14.40;;
78931;SDS011;68331;53.362;55.932;2023-05-16T09:07:19;19.05;;;16.00;;
78931;SDS011;68331;53.362;55.932;2023-05-16T09:09:45;19.20;;;15.07;;
78931;SDS011;68331;53.362;55.932;2023-05-16T09:12:11;18.65;;;16.15;;
78931;SDS011;68331;53.362;55.932;2023-05-16T09:14:37;18.80;;;14.75;;
78931;SDS011;68331;53.362;55.932;2023-05-16T09:17:03;20.63;;;16.55;;
78931;SDS011;68331;53.362;55.932;2023-05-16T09:19:40;22.83;;;17.15;;
78931;SDS011;68331;53.362;55.932;2023-05-16T09:22:08;20.90;;;16.58;;
78931;SDS011;68331;53.362;55.932;2023-05-16T09:24:42;19.15;;;14.48;;
78931;SDS011;68331;53.362;55.932;2023-05-16T09:27:10;19.02;;;15.23;;
78931;SDS011;68331;53.362;55.932;2023-05-16T09:29:40;19.40;;;16.00;;
78931;SDS011;68331;53.362;55.932;2023-05-16T09:32:14;20.27;;;17.10;;
78931;SDS011;68331;53.362;55.932;2023-05-16T09:34:44;19.30;;;16.02;;
78931;SDS011;68331;53.362;55.932;2023-05-16T09:37:13;19.63;;;16.75;;
78931;SDS011;68331;53.362;55.932;2023-05-16T09:39:47;22.73;;;17.38;;
78931;SDS011;68331;53.362;55.932;2023-05-16T09:42:14;21.63;;;17.27;;
78931;SDS011;68331;53.362;55.932;2023-05-16T09:44:48;19.55;;;15.80;;
78931;SDS011;68331;53.362;55.932;2023-05-16T09:47:16;20.80;;;16.67;;
78931;SDS011;68331;53.362;55.932;2023-05-16T09:49:43;19.85;;;17.00;;
78931;SDS011;68331;53.362;55.932;2023-05-16T09:52:10;20.95;;;16.17;;
78931;SDS011;68331;53.362;55.932;2023-05-16T09:54:38;36.78;;;17.27;;
78931;SDS011;68331;53.362;55.932;2023-05-16T09:57:04;19.92;;;16.20;;
78931;SDS011;68331;53.362;55.932;2023-05-16T09:59:34;21.58;;;16.30;;
78931;SDS011;68331;53.362;55.932;2023-05-16T10:02:04;19.20;;;16.35;;
78931;SDS011;68331;53.362;55.932;2023-05-16T10:04:34;26.25;;;16.88;;
78931;SDS011;68331;53.362;55.932;2023-05-16T10:07:03;20.83;;;16.65;;
78931;SDS011;68331;53.362;55.932;2023-05-16T10:09:31;19.10;;;14.68;;
78931;SDS011;68331;53.362;55.932;2023-05-16T10:12:01;20.67;;;16.67;;
78931;SDS011;68331;53.362;55.932;2023-05-16T10:14:31;19.65;;;16.13;;
78931;SDS011;68331;53.362;55.932;2023-05-16T10:16:59;21.23;;;14.50;;
78931;SDS011;68331;53.362;55.932;2023-05-16T10:19:27;18.45;;;15.70;;
78931;SDS011;68331;53.362;55.932;2023-05-16T10:21:56;19.30;;;14.63;;
78931;SDS011;68331;53.362;55.932;2023-05-16T10:24:28;20.25;;;15.43;;
78931;SDS011;68331;53.362;55.932;2023-05-16T10:26:59;22.05;;;17.08;;
78931;SDS011;68331;53.362;55.932;2023-05-16T10:29:27;19.33;;;16.13;;
78931;SDS011;68331;53.362;55.932;2023-05-16T10:31:54;18.67;;;15.63;;
78931;SDS011;68331;53.362;55.932;2023-05-16T10:34:20;20.48;;;15.75;;
78931;SDS011;68331;53.362;55.932;2023-05-16T10:36:47;20.33;;;15.70;;
78931;SDS011;68331;53.362;55.932;2023-05-16T10:41:40;19.63;;;15.32;;
78931;SDS011;68331;53.362;55.932;2023-05-16T10:46:37;22.33;;;15.30;;
78931;SDS011;68331;53.362;55.932;2023-05-16T10:49:25;20.80;;;15.20;;
78931;SDS011;68331;53.362;55.932;2023-05-16T10:52:04;22.48;;;16.25;;
78931;SDS011;68331;53.362;55.932;2023-05-16T10:54:36;19.13;;;14.27;;
78931;SDS011;68331;53.362;55.932;2023-05-16T10:57:10;17.77;;;14.82;;
78931;SDS011;68331;53.362;55.932;2023-05-16T10:59:46;19.00;;;15.07;;
78931;SDS011;68331;53.362;55.932;2023-05-16T11:02:32;18.77;;;13.23;;
78931;SDS011;68331;53.362;55.932;2023-05-16T11:05:04;16.55;;;14.60;;
78931;SDS011;68331;53.362;55.932;2023-05-16T11:07:32;15.45;;;12.90;;
78931;SDS011;68331;53.362;55.932;2023-05-16T11:12:47;18.98;;;14.50;;
78931;SDS011;68331;53.362;55.932;2023-05-16T11:17:44;16.40;;;14.07;;
78931;SDS011;68331;53.362;55.932;2023-05-16T11:20:26;16.42;;;12.90;;
78931;SDS011;68331;53.362;55.932;2023-05-16T11:23:20;17.15;;;12.93;;
78931;SDS011;68331;53.362;55.932;2023-05-16T11:25:51;19.48;;;14.40;;
78931;SDS011;68331;53.362;55.932;2023-05-16T11:28:18;15.52;;;13.55;;
78931;SDS011;68331;53.362;55.932;2023-05-16T11:30:48;15.80;;;13.98;;
78931;SDS011;68331;53.362;55.932;2023-05-16T11:33:17;17.55;;;14.77;;
78931;SDS011;68331;53.362;55.932;2023-05-16T11:35:43;20.25;;;16.02;;
78931;SDS011;68331;53.362;55.932;2023-05-16T11:38:31;17.05;;;12.85;;
78931;SDS011;68331;53.362;55.932;2023-05-16T11:41:06;19.25;;;14.10;;
78931;SDS011;68331;53.362;55.932;2023-05-16T11:43:37;17.38;;;13.88;;
78931;SDS011;68331;53.362;55.932;2023-05-16T11:46:05;17.25;;;14.07;;
78931;SDS011;68331;53.362;55.932;2023-05-16T11:48:32;19.00;;;13.60;;
78931;SDS011;68331;53.362;55.932;2023-05-16T11:50:59;17.48;;;13.80;;
78931;SDS011;68331;53.362;55.932;2023-05-16T11:53:26;18.35;;;14.30;;
78931;SDS011;68331;53.362;55.932;2023-05-16T11:55:52;19.38;;;14.20;;
78931;SDS011;68331;53.362;55.932;2023-05-16T11:58:18;18.23;;;14.02;;
78931;SDS011;68331;53.362;55.932;2023-05-16T12:00:48;22.30;;;13.90;;
78931;SDS011;68331;53.362;55.932;2023-05-16T12:03:16;22.45;;;14.15;;
78931;SDS011;68331;53.362;55.932;2023-05-16T12:05:53;21.63;;;15.63;;
78931;SDS011;68331;53.362;55.932;2023-05-16T12:08:21;17.63;;;14.15;;
78931;SDS011;68331;53.362;55.932;2023-05-16T12:10:49;19.73;;;14.23;;
78931;SDS011;68331;53.362;55.932;2023-05-16T12:13:16;19.65;;;13.60;;
78931;SDS011;68331;53.362;55.932;2023-05-16T12:15:44;18.08;;;14.40;;
78931;SDS011;68331;53.362;55.932;2023-05-16T12:18:11;17.02;;;14.63;;
78931;SDS011;68331;53.362;55.932;2023-05-16T12:20:37;17.02;;;14.13;;
78931;SDS011;68331;53.362;55.932;2023-05-16T12:23:04;19.15;;;14.20;;
78931;SDS011;68331;53.362;55.932;2023-05-16T12:25:34;17.58;;;14.15;;
78931;SDS011;68331;53.362;55.932;2023-05-16T12:28:02;22.98;;;13.23;;
78931;SDS011;68331;53.362;55.932;2023-05-16T12:30:30;17.20;;;14.32;;
78931;SDS011;68331;53.362;55.932;2023-05-16T12:32:57;17.92;;;13.55;;
78931;SDS011;68331;53.362;55.932;2023-05-16T12:35:25;19.60;;;14.13;;
78931;SDS011;68331;53.362;55.932;2023-05-16T12:37:55;19.63;;;14.38;;
78931;SDS011;68331;53.362;55.932;2023-05-16T12:40:21;17.55;;;13.73;;
78931;SDS011;68331;53.362;55.932;2023-05-16T12:42:49;19.05;;;13.82;;
78931;SDS011;68331;53.362;55.932;2023-05-16T12:45:16;18.17;;;12.90;;
78931;SDS011;68331;53.362;55.932;2023-05-16T12:47:43;19.02;;;13.95;;
78931;SDS011;68331;53.362;55.932;2023-05-16T12:50:10;19.02;;;13.02;;
78931;SDS011;68331;53.362;55.932;2023-05-16T12:52:47;15.98;;;13.45;;
78931;SDS011;68331;53.362;55.932;2023-05-16T12:55:17;17.35;;;13.98;;
78931;SDS011;68331;53.362;55.932;2023-05-16T12:57:44;21.30;;;12.88;;
78931;SDS011;68331;53.362;55.932;2023-05-16T13:00:15;17.30;;;13.27;;
78931;SDS011;68331;53.362;55.932;2023-05-16T13:02:46;17.20;;;12.40;;
78931;SDS011;68331;53.362;55.932;2023-05-16T13:05:12;17.83;;;12.82;;
78931;SDS011;68331;53.362;55.932;2023-05-16T13:07:40;14.02;;;12.45;;
78931;SDS011;68331;53.362;55.932;2023-05-16T13:10:09;15.63;;;13.02;;
78931;SDS011;68331;53.362;55.932;2023-05-16T13:12:43;13.95;;;12.55;;
78931;SDS011;68331;53.362;55.932;2023-05-16T13:15:10;14.50;;;12.32;;
78931;SDS011;68331;53.362;55.932;2023-05-16T13:17:37;15.73;;;12.85;;
78931;SDS011;68331;53.362;55.932;2023-05-16T13:20:04;17.33;;;13.10;;
78931;SDS011;68331;53.362;55.932;2023-05-16T13:22:35;17.40;;;12.88;;
78931;SDS011;68331;53.362;55.932;2023-05-16T13:25:02;17.98;;;12.55;;
78931;SDS011;68331;53.362;55.932;2023-05-16T13:27:29;16.30;;;12.77;;
78931;SDS011;68331;53.362;55.932;2023-05-16T13:29:56;16.42;;;12.68;;
78931;SDS011;68331;53.362;55.932;2023-05-16T13:32:22;16.83;;;13.32;;
78931;SDS011;68331;53.362;55.932;2023-05-16T13:34:50;14.20;;;11.60;;
78931;SDS011;68331;53.362;55.932;2023-05-16T13:37:16;14.15;;;11.45;;
78931;SDS011;68331;53.362;55.932;2023-05-16T13:39:43;13.55;;;12.07;;
78931;SDS011;68331;53.362;55.932;2023-05-16T13:42:09;15.55;;;11.02;;
78931;SDS011;68331;53.362;55.932;2023-05-16T13:44:35;14.15;;;11.32;;
78931;SDS011;68331;53.362;55.932;2023-05-16T13:47:01;13.00;;;11.13;;
78931;SDS011;68331;53.362;55.932;2023-05-16T13:52:01;15.10;;;10.50;;
78931;SDS011;68331;53.362;55.932;2023-05-16T13:54:27;14.05;;;11.00;;
78931;SDS011;68331;53.362;55.932;2023-05-16T13:56:53;14.30;;;11.18;;
78931;SDS011;68331;53.362;55.932;2023-05-16T13:59:19;14.30;;;10.52;;
78931;SDS011;68331;53.362;55.932;2023-05-16T14:01:45;14.50;;;11.65;;
78931;SDS011;68331;53.362;55.932;2023-05-16T14:04:11;14.38;;;10.07;;
78931;SDS011;68331;53.362;55.932;2023-05-16T14:06:36;14.30;;;11.02;;
78931;SDS011;68331;53.362;55.932;2023-05-16T14:09:03;51.65;;;35.67;;
78931;SDS011;68331;53.362;55.932;2023-05-16T14:11:29;12.05;;;9.90;;
78931;SDS011;68331;53.362;55.932;2023-05-16T14:13:56;11.68;;;10.48;;
78931;SDS011;68331;53.362;55.932;2023-05-16T14:16:22;12.43;;;10.43;;
78931;SDS011;68331;53.362;55.932;2023-05-16T14:18:49;12.82;;;10.30;;
78931;SDS011;68331;53.362;55.932;2023-05-16T14:21:16;13.48;;;10.13;;
78931;SDS011;68331;53.362;55.932;2023-05-16T14:23:42;13.68;;;11.10;;
78931;SDS011;68331;53.362;55.932;2023-05-16T14:26:08;12.32;;;9.35;;
78931;SDS011;68331;53.362;55.932;2023-05-16T14:28:34;14.55;;;10.85;;
78931;SDS011;68331;53.362;55.932;2023-05-16T14:31:00;13.50;;;9.88;;
78931;SDS011;68331;53.362;55.932;2023-05-16T14:33:27;12.70;;;9.57;;
78931;SDS011;68331;53.362;55.932;2023-05-16T14:35:53;12.60;;;9.40;;
78931;SDS011;68331;53.362;55.932;2023-05-16T14:38:19;14.52;;;9.73;;
78931;SDS011;68331;53.362;55.932;2023-05-16T14:40:45;13.25;;;9.82;;
78931;SDS011;68331;53.362;55.932;2023-05-16T14:43:11;12.60;;;8.90;;
78931;SDS011;68331;53.362;55.932;2023-05-16T14:45:37;12.02;;;9.95;;
78931;SDS011;68331;53.362;55.932;2023-05-16T14:48:07;14.60;;;11.05;;
78931;SDS011;68331;53.362;55.932;2023-05-16T14:50:33;12.38;;;10.27;;